Station: Normanton  

  Atmospheric Gas Attenuation - ITU Rec 676-11   ----------------- dB/100km -----------------
Date Time Temp RH % AH g/m3 Dew Point Wind Direction Speed kph Gust kph Barometer mB Rainfall Since 9am 24GHz 47GHz 76GHz 122GHz 134GHz 241GHz
08/05 12:40 30 47 14.26 17.5 11 13 1013.4 0 30.6 29.8 52.7 139.1 146.3 507.8
08/05 12:30 29.6 46 13.65 16.8 17 28 1013.6 0 29.3 29.0 50.6 133.6 139.3 483.6
08/05 12:20 29.7 47 14.03 17.2 19 24 1013.7 0 30.1 29.6 52.0 137.3 143.9 499.7
08/05 12:10 29.1 46 13.29 16.6 19 24 1013.8 0 28.6 28.6 49.6 130.8 135.7 470.9
08/05 12:00 29.2 46 13.36 16.7 17 30 1013.9 0 28.7 28.7 49.8 131.3 136.4 473.4
08/05 11:50 28.7 47 13.28 16.3 15 19 1014.1 0 28.6 28.8 49.8 131.3 136.3 473.0
08/05 11:40 29.2 46 13.36 16.7 19 20 1014.3 0 28.7 28.7 49.8 131.4 136.5 473.6
08/05 11:30 28.4 49 13.62 16.7 20 26 1014.5 0 29.3 29.4 51.3 135.4 141.2 489.9
08/05 11:20 28.3 49 13.55 16.6 15 20 1014.8 0 29.2 29.3 51.1 134.9 140.5 487.5
08/05 11:10 27.9 49 13.25 16.2 15 19 1015 0 28.6 29.0 50.2 132.5 137.4 476.7
08/05 11:00 27.6 48 12.77 15.6 20 35 1014.9 0 27.6 28.4 48.6 128.0 131.9 457.3
08/05 10:50 27.2 49 12.75 15.6 17 24 1015.2 0 27.6 28.5 48.7 128.5 132.3 458.8
08/05 10:40 27.6 49 13.04 15.9 20 26 1015.2 0 28.2 28.8 49.6 130.8 135.3 469.3
08/05 10:30 27 48 12.35 15.1 24 28 1015.3 0 26.8 27.9 47.3 124.7 127.7 442.5
08/05 10:20 26.7 49 12.4 15.1 17 20 1015.3 0 26.9 28.1 47.7 125.7 128.8 446.3
08/05 10:10 26.2 50 12.31 15 20 24 1015.3 0 26.7 28.1 47.7 125.6 128.5 445.2
08/05 10:00 26.2 48 11.82 14.6 20 28 1015.3 0 25.7 27.3 45.8 120.6 122.3 423.7
08/05 09:50 26 50 12.17 14.8 24 28 1015.4 0 26.5 28.0 47.2 124.5 127.0 440.1
08/05 09:40 25.3 51 11.94 14.7 24 28 1015.4 0 26.0 27.8 46.8 123.2 125.3 433.8
08/05 09:30 25.1 52 12.04 14.6 20 32 1015.3 0 26.2 28.0 47.3 124.5 126.8 439.3
08/05 09:20 24.9 52 11.9 14.4 20 26 1015.4 0 26.0 27.9 46.9 123.4 125.4 434.3
08/05 09:10 24.8 53 12.06 14.6 19 22 1015.3 0 26.3 28.2 47.5 125.2 127.6 441.9
08/05 09:00 24.4 54 12.02 14.5 24 35 1015.3 0 26.2 28.2 47.6 125.4 127.7 442.3
08/05 08:50 24.2 54 11.88 14.3 19 20 1015.2 0 26.0 28.1 47.2 124.3 126.2 437.2
08/05 08:40 23.7 55 11.76 14.1 22 26 1015.2 0 25.7 28.0 47.0 123.8 125.5 434.5
08/05 08:30 23.5 55 11.63 13.9 24 37 1015.1 0 25.5 27.9 46.6 122.7 124.1 429.8
08/05 08:20 23.6 55 11.7 14 28 32 1015.1 0 25.6 28.0 46.8 123.3 124.9 432.4
08/05 08:10 23.3 55 11.5 13.8 26 30 1015.1 0 25.2 27.7 46.2 121.7 122.8 425.0
08/05 08:00 23.1 55 11.37 13.8 24 32 1015 0 25.0 27.6 45.8 120.6 121.4 420.2
08/05 07:50 23 56 11.51 13.8 26 30 1014.8 0 25.3 27.8 46.4 122.2 123.4 427.0
08/05 07:40 22.6 58 11.65 13.9 24 28 1014.7 0 25.6 28.2 47.2 124.3 125.8 435.5
08/05 07:30 22.5 59 11.78 14.1 22 28 1014.7 0 25.9 28.4 47.8 125.8 127.7 441.9
08/05 07:20 22.3 59 11.65 13.9 20 22 1014.5 0 25.6 28.3 47.4 124.8 126.3 437.0
08/05 07:10 22.3 59 11.65 13.9 20 24 1014.4 0 25.6 28.3 47.4 124.7 126.3 437.0
08/05 07:00 22.3 59 11.65 13.9 22 28 1014.3 0 25.6 28.3 47.4 124.7 126.3 437.0
08/05 06:50 22.4 58 11.52 13.7 20 26 1014.3 0 25.3 28.0 46.8 123.2 124.4 430.5
08/05 06:40 22.5 58 11.58 13.8 22 26 1014.2 0 25.4 28.1 47.0 123.7 125.0 432.7
08/05 06:30 22.6 58 11.65 13.9 20 32 1014.1 0 25.6 28.2 47.2 124.2 125.7 435.3
08/05 06:20 22.6 58 11.65 13.9 22 24 1013.9 0 25.6 28.1 47.2 124.2 125.7 435.2
08/05 06:10 22.6 58 11.65 13.9 20 24 1013.7 0 25.6 28.1 47.2 124.2 125.7 435.1
08/05 06:00 22.6 58 11.65 13.9 22 30 1013.7 0 25.6 28.1 47.2 124.2 125.7 435.1
08/05 05:50 22.7 56 11.31 13.7 22 26 1013.5 0 24.9 27.6 45.8 120.5 121.1 419.2
08/05 05:40 22.6 58 11.65 13.9 17 19 1013.4 0 25.6 28.1 47.1 124.2 125.7 435.0
08/05 05:30 22.8 57 11.58 13.8 22 32 1013.4 0 25.4 28.0 46.7 123.1 124.4 430.8
08/05 05:20 23 56 11.51 13.8 20 24 1013.3 0 25.3 27.8 46.4 122.1 123.2 426.5
08/05 05:10 23 56 11.51 13.8 22 32 1013.2 0 25.3 27.8 46.3 122.0 123.2 426.5
08/05 05:00 23.3 55 11.5 13.8 22 32 1013.1 0 25.2 27.7 46.1 121.5 122.6 424.4
08/05 04:50 23.2 55 11.43 13.7 22 28 1013.1 0 25.1 27.6 45.9 120.9 121.9 421.8
08/05 04:40 23.3 55 11.5 13.8 20 28 1013.1 0 25.2 27.7 46.1 121.5 122.6 424.4
08/05 04:30 23.4 54 11.35 13.8 22 30 1013.1 0 24.9 27.4 45.5 119.8 120.5 417.1
08/05 04:20 23.7 53 11.34 13.8 26 28 1013.1 0 24.9 27.3 45.3 119.2 119.9 415.1
08/05 04:10 23.5 54 11.42 13.7 19 20 1013 0 25.0 27.5 45.7 120.3 121.3 419.7
08/05 04:00 23.9 54 11.68 14 22 33 1013 0 25.6 27.8 46.5 122.4 123.9 429.1
08/05 03:50 23.9 52 11.25 13.7 22 26 1012.9 0 24.7 27.1 44.8 118.0 118.5 410.0
08/05 03:40 23.8 54 11.62 13.9 19 20 1012.9 0 25.4 27.7 46.3 121.9 123.3 427.0
08/05 03:30 24.1 53 11.6 13.9 24 32 1012.9 0 25.4 27.6 46.0 121.3 122.6 424.5
08/05 03:20 24.2 52 11.44 13.7 26 30 1012.8 0 25.0 27.3 45.4 119.5 120.4 416.8
08/05 03:10 24.1 53 11.6 13.9 22 24 1012.9 0 25.4 27.6 46.0 121.3 122.6 424.5
08/05 03:00 24.3 53 11.73 14.1 22 32 1012.9 0 25.6 27.7 46.4 122.3 123.9 429.2
08/05 02:50 24.4 53 11.79 14.2 24 28 1012.9 0 25.8 27.8 46.6 122.8 124.5 431.3
08/05 02:40 24.5 53 11.86 14.3 24 28 1012.9 0 25.9 27.8 46.8 123.3 125.3 433.8
08/05 02:30 24.5 53 11.86 14.3 22 30 1012.9 0 25.9 27.8 46.8 123.3 125.3 433.8
08/05 02:20 24.5 53 11.86 14.3 20 26 1012.9 0 25.9 27.8 46.8 123.3 125.3 433.8
08/05 02:10 24.6 53 11.93 14.4 22 26 1012.9 0 26.1 27.9 47.0 123.9 126.0 436.4
08/05 02:00 24.7 53 12 14.5 22 30 1013 0 26.2 28.0 47.2 124.5 126.7 439.0
08/05 01:50 24.9 52 11.9 14.4 24 30 1013 0 26.0 27.8 46.7 123.1 125.1 433.5
08/05 01:40 25 52 11.97 14.5 24 28 1013 0 26.1 27.9 47.0 123.7 125.9 436.0
08/05 01:30 25.1 52 12.04 14.6 22 30 1013.1 0 26.2 27.9 47.2 124.3 126.6 438.6
08/05 01:20 25.2 51 11.87 14.6 24 28 1013.2 0 25.9 27.7 46.5 122.4 124.3 430.6
08/05 01:10 25.3 51 11.94 14.7 26 28 1013.2 0 26.0 27.7 46.7 123.0 125.0 433.1
08/05 01:00 25.4 52 12.24 14.8 22 32 1013.3 0 26.6 28.2 47.8 125.9 128.7 445.9
08/05 00:50 25.4 52 12.24 14.8 24 30 1013.3 0 26.6 28.2 47.8 125.9 128.7 445.9
08/05 00:40 25.6 52 12.38 15 22 24 1013.4 0 26.9 28.3 48.2 127.0 130.1 451.0
08/05 00:30 25.6 51 12.14 14.7 24 28 1013.5 0 26.4 28.0 47.3 124.6 127.1 440.4
08/05 00:20 25.6 52 12.38 15 20 24 1013.5 0 26.9 28.3 48.2 127.1 130.2 451.0
08/05 00:10 25.8 51 12.28 14.9 24 28 1013.5 0 26.7 28.1 47.7 125.7 128.6 445.5
08/05 00:00 25.7 52 12.45 15.1 22 30 1013.7 0 27.1 28.4 48.4 127.6 130.9 453.7
07/05 23:50 25.6 53 12.62 15.3 22 26 1013.7 0 27.4 28.7 49.2 129.6 133.2 461.8
07/05 23:40 25.3 54 12.64 15.3 19 20 1013.8 0 27.5 28.9 49.4 130.3 134.0 464.5
07/05 23:30 25.3 55 12.88 15.6 17 22 1013.9 0 28.0 29.2 50.4 132.8 137.1 475.4
07/05 23:20 25.6 54 12.86 15.6 20 26 1013.9 0 27.9 29.1 50.1 132.1 136.4 472.7
07/05 23:10 25.5 54 12.78 15.5 20 22 1013.9 0 27.8 29.0 49.9 131.4 135.5 469.7
07/05 23:00 25.3 55 12.88 15.6 19 26 1013.9 0 28.0 29.2 50.4 132.8 137.1 475.4
07/05 22:50 25.2 56 13.04 15.8 17 19 1013.9 0 28.3 29.5 51.1 134.7 139.4 483.3
07/05 22:40 25 58 13.35 16.2 15 17 1013.9 0 29.0 30.1 52.4 138.3 143.8 498.8
07/05 22:30 24.9 58 13.28 16.1 13 17 1014 0 28.9 30.0 52.2 137.8 143.1 496.2
07/05 22:20 24.8 58 13.2 16.2 13 13 1014 0 28.7 29.9 52.0 137.1 142.2 493.2
07/05 22:10 25 58 13.35 16.2 13 13 1014.1 0 29.0 30.1 52.5 138.4 143.9 498.9
07/05 22:00 25.2 57 13.27 16.1 13 15 1014.2 0 28.8 29.9 52.0 137.2 142.5 493.9
07/05 21:50 25.6 56 13.33 16.2 13 15 1014.1 0 28.9 29.9 52.0 137.1 142.5 494.1
07/05 21:40 25.5 56 13.26 16.1 13 15 1014.1 0 28.8 29.8 51.8 136.5 141.8 491.6
07/05 21:30 25.4 57 13.42 16.3 13 17 1014.2 0 29.1 30.1 52.5 138.4 144.1 499.6
07/05 21:20 25.3 57 13.34 16.2 13 17 1014.2 0 29.0 30.0 52.2 137.7 143.2 496.5
07/05 21:10 25.1 58 13.43 16.3 13 15 1014.2 0 29.2 30.2 52.7 139.1 144.8 501.9
07/05 21:00 25.4 57 13.42 16.3 13 15 1014.2 0 29.1 30.1 52.5 138.4 144.1 499.6
07/05 20:50 25.5 57 13.49 16.4 13 15 1014 0 29.3 30.2 52.7 139.0 144.8 502.1
07/05 20:40 25.9 56 13.56 16.5 11 13 1014 0 29.4 30.1 52.7 139.0 145.0 502.7
07/05 20:30 26.3 54 13.37 16.3 13 17 1013.9 0 29.0 29.7 51.7 136.3 141.7 491.5
07/05 20:20 26.2 54 13.29 16.4 13 15 1013.9 0 28.8 29.6 51.4 135.6 140.9 488.5
07/05 20:10 26 55 13.39 16.5 13 15 1013.7 0 29.0 29.8 51.9 137.0 142.5 494.2

Last Refresh: 08-May-2026 12:09:37

Bureau of Meteorology